sensor_id;sensor_type;location;lat;lon;timestamp;temperature;humidity
45237;DHT22;30973;51.442;3.580;2022-09-29T09:34:11;15.60;99.90
45237;DHT22;30973;51.442;3.580;2022-09-29T09:36:46;15.70;99.90
45237;DHT22;30973;51.442;3.580;2022-09-29T09:39:43;15.90;99.90
45237;DHT22;30973;51.442;3.580;2022-09-29T09:42:19;16.10;99.90
45237;DHT22;30973;51.442;3.580;2022-09-29T09:44:48;16.30;99.90
45237;DHT22;30973;51.442;3.580;2022-09-29T09:47:25;16.50;99.90
45237;DHT22;30973;51.442;3.580;2022-09-29T09:49:58;16.70;99.90
45237;DHT22;30973;51.442;3.580;2022-09-29T09:52:47;16.90;99.90
45237;DHT22;30973;51.442;3.580;2022-09-29T09:55:20;17.00;99.90
45237;DHT22;30973;51.442;3.580;2022-09-29T09:58:07;17.20;99.90
45237;DHT22;30973;51.442;3.580;2022-09-29T10:00:45;17.30;99.50
45237;DHT22;30973;51.442;3.580;2022-09-29T10:03:13;17.50;99.90
45237;DHT22;30973;51.442;3.580;2022-09-29T10:05:44;17.70;99.90
45237;DHT22;30973;51.442;3.580;2022-09-29T10:08:38;17.80;98.60
45237;DHT22;30973;51.442;3.580;2022-09-29T10:11:21;17.90;99.20
45237;DHT22;30973;51.442;3.580;2022-09-29T10:13:59;18.00;99.40
45237;DHT22;30973;51.442;3.580;2022-09-29T10:16:50;18.10;98.70
45237;DHT22;30973;51.442;3.580;2022-09-29T10:20:07;18.10;98.90
45237;DHT22;30973;51.442;3.580;2022-09-29T10:22:13;18.20;98.80
45237;DHT22;30973;51.442;3.580;2022-09-29T10:24:40;18.40;98.80
45237;DHT22;30973;51.442;3.580;2022-09-29T10:27:07;18.40;98.30
45237;DHT22;30973;51.442;3.580;2022-09-29T10:29:41;18.50;98.70
45237;DHT22;30973;51.442;3.580;2022-09-29T10:34:41;18.60;98.20
45237;DHT22;30973;51.442;3.580;2022-09-29T10:37:29;18.70;98.10
45237;DHT22;30973;51.442;3.580;2022-09-29T10:42:38;18.80;98.60
45237;DHT22;30973;51.442;3.580;2022-09-29T10:45:32;18.90;97.40
45237;DHT22;30973;51.442;3.580;2022-09-29T10:50:34;19.10;97.70
45237;DHT22;30973;51.442;3.580;2022-09-29T10:55:55;19.30;96.60
45237;DHT22;30973;51.442;3.580;2022-09-29T11:01:15;19.40;96.50
45237;DHT22;30973;51.442;3.580;2022-09-29T11:03:55;19.50;95.30
45237;DHT22;30973;51.442;3.580;2022-09-29T11:09:28;19.80;95.60
45237;DHT22;30973;51.442;3.580;2022-09-29T11:11:57;19.80;95.50
45237;DHT22;30973;51.442;3.580;2022-09-29T11:14:31;19.90;94.60
45237;DHT22;30973;51.442;3.580;2022-09-29T11:19:54;19.90;93.90
45237;DHT22;30973;51.442;3.580;2022-09-29T11:27:41;19.60;93.90
45237;DHT22;30973;51.442;3.580;2022-09-29T11:30:19;19.40;93.70
45237;DHT22;30973;51.442;3.580;2022-09-29T11:33:08;19.20;94.20
45237;DHT22;30973;51.442;3.580;2022-09-29T11:39:00;18.80;95.50
45237;DHT22;30973;51.442;3.580;2022-09-29T12:00:58;17.60;95.90
45237;DHT22;30973;51.442;3.580;2022-09-29T12:03:45;17.50;96.20
45237;DHT22;30973;51.442;3.580;2022-09-29T12:17:23;17.20;96.50
45237;DHT22;30973;51.442;3.580;2022-09-29T12:20:01;17.10;96.70
45237;DHT22;30973;51.442;3.580;2022-09-29T12:22:29;17.20;96.70
45237;DHT22;30973;51.442;3.580;2022-09-29T12:25:02;17.40;96.60
45237;DHT22;30973;51.442;3.580;2022-09-29T12:27:38;17.50;96.50
45237;DHT22;30973;51.442;3.580;2022-09-29T12:30:25;17.50;96.80
45237;DHT22;30973;51.442;3.580;2022-09-29T12:33:04;17.70;96.60
45237;DHT22;30973;51.442;3.580;2022-09-29T12:35:39;18.00;96.60
45237;DHT22;30973;51.442;3.580;2022-09-29T12:43:34;18.20;95.50
45237;DHT22;30973;51.442;3.580;2022-09-29T12:46:23;18.30;96.00
45237;DHT22;30973;51.442;3.580;2022-09-29T12:51:41;18.30;95.90
45237;DHT22;30973;51.442;3.580;2022-09-29T12:56:49;18.70;95.40
45237;DHT22;30973;51.442;3.580;2022-09-29T13:02:00;19.00;95.40
45237;DHT22;30973;51.442;3.580;2022-09-29T13:04:45;19.10;94.50
45237;DHT22;30973;51.442;3.580;2022-09-29T13:28:32;17.90;95.20
45237;DHT22;30973;51.442;3.580;2022-09-29T13:31:02;17.90;95.10
45237;DHT22;30973;51.442;3.580;2022-09-29T13:33:31;17.90;95.40
45237;DHT22;30973;51.442;3.580;2022-09-29T13:35:58;18.00;94.60
45237;DHT22;30973;51.442;3.580;2022-09-29T13:38:29;18.00;94.60
45237;DHT22;30973;51.442;3.580;2022-09-29T13:49:12;18.00;95.20
45237;DHT22;30973;51.442;3.580;2022-09-29T13:51:49;17.90;95.20
45237;DHT22;30973;51.442;3.580;2022-09-29T14:02:43;17.60;96.00
45237;DHT22;30973;51.442;3.580;2022-09-29T14:10:23;17.40;96.00
45237;DHT22;30973;51.442;3.580;2022-09-29T14:13:30;17.30;96.10
45237;DHT22;30973;51.442;3.580;2022-09-29T14:18:46;17.30;96.00
45237;DHT22;30973;51.442;3.580;2022-09-29T14:30:41;17.50;95.90
45237;DHT22;30973;51.442;3.580;2022-09-29T14:33:15;17.50;96.30
45237;DHT22;30973;51.442;3.580;2022-09-29T14:38:48;17.70;96.20
45237;DHT22;30973;51.442;3.580;2022-09-29T14:41:44;17.70;96.60
45237;DHT22;30973;51.442;3.580;2022-09-29T14:44:22;17.70;96.00
45237;DHT22;30973;51.442;3.580;2022-09-29T14:50:16;17.70;95.90
45237;DHT22;30973;51.442;3.580;2022-09-29T15:01:28;17.60;95.10
45237;DHT22;30973;51.442;3.580;2022-09-29T15:06:48;17.40;95.40
45237;DHT22;30973;51.442;3.580;2022-09-29T15:14:30;17.30;95.90
45237;DHT22;30973;51.442;3.580;2022-09-29T15:17:47;17.30;95.90
45237;DHT22;30973;51.442;3.580;2022-09-29T15:25:40;17.40;96.10
45237;DHT22;30973;51.442;3.580;2022-09-29T15:28:13;17.40;96.20
45237;DHT22;30973;51.442;3.580;2022-09-29T15:30:41;17.30;96.00
45237;DHT22;30973;51.442;3.580;2022-09-29T15:33:21;17.30;95.70
45237;DHT22;30973;51.442;3.580;2022-09-29T15:35:56;17.20;95.20
45237;DHT22;30973;51.442;3.580;2022-09-29T15:40:55;17.00;95.70
45237;DHT22;30973;51.442;3.580;2022-09-29T15:43:27;16.90;95.40
45237;DHT22;30973;51.442;3.580;2022-09-29T15:46:00;16.80;96.00
45237;DHT22;30973;51.442;3.580;2022-09-29T15:48:29;16.70;95.90
45237;DHT22;30973;51.442;3.580;2022-09-29T15:50:57;16.70;96.00
45237;DHT22;30973;51.442;3.580;2022-09-29T15:53:27;16.60;96.20
45237;DHT22;30973;51.442;3.580;2022-09-29T15:55:54;16.50;96.30
45237;DHT22;30973;51.442;3.580;2022-09-29T16:01:04;16.30;96.50
45237;DHT22;30973;51.442;3.580;2022-09-29T16:06:28;16.20;96.80
45237;DHT22;30973;51.442;3.580;2022-09-29T16:09:00;16.10;96.90
45237;DHT22;30973;51.442;3.580;2022-09-29T16:11:36;16.00;97.00
45237;DHT22;30973;51.442;3.580;2022-09-29T16:14:10;15.90;97.00
45237;DHT22;30973;51.442;3.580;2022-09-29T16:16:42;15.90;97.10
45237;DHT22;30973;51.442;3.580;2022-09-29T16:19:16;15.80;97.00
45237;DHT22;30973;51.442;3.580;2022-09-29T16:21:51;15.80;97.00
45237;DHT22;30973;51.442;3.580;2022-09-29T16:24:19;15.70;97.00
45237;DHT22;30973;51.442;3.580;2022-09-29T16:26:50;15.60;97.30
45237;DHT22;30973;51.442;3.580;2022-09-29T16:29:34;15.50;96.90
45237;DHT22;30973;51.442;3.580;2022-09-29T16:35:37;15.40;97.10
45237;DHT22;30973;51.442;3.580;2022-09-29T16:40:59;15.20;97.20
45237;DHT22;30973;51.442;3.580;2022-09-29T16:43:28;15.20;97.30
45237;DHT22;30973;51.442;3.580;2022-09-29T16:46:02;15.20;97.40
45237;DHT22;30973;51.442;3.580;2022-09-29T16:48:30;15.10;97.40
45237;DHT22;30973;51.442;3.580;2022-09-29T16:51:13;15.10;97.50
45237;DHT22;30973;51.442;3.580;2022-09-29T16:54:00;15.10;97.60
45237;DHT22;30973;51.442;3.580;2022-09-29T16:56:29;15.00;97.60
45237;DHT22;30973;51.442;3.580;2022-09-29T16:59:07;15.00;97.70
45237;DHT22;30973;51.442;3.580;2022-09-29T17:01:41;15.00;97.80
45237;DHT22;30973;51.442;3.580;2022-09-29T17:04:09;14.90;97.80
45237;DHT22;30973;51.442;3.580;2022-09-29T17:06:36;14.90;97.90
45237;DHT22;30973;51.442;3.580;2022-09-29T17:09:04;15.00;98.00
45237;DHT22;30973;51.442;3.580;2022-09-29T17:11:31;14.90;98.00
45237;DHT22;30973;51.442;3.580;2022-09-29T17:14:01;14.90;98.10
45237;DHT22;30973;51.442;3.580;2022-09-29T17:16:28;14.80;98.10
45237;DHT22;30973;51.442;3.580;2022-09-29T17:18:55;14.80;98.20
45237;DHT22;30973;51.442;3.580;2022-09-29T17:21:23;14.80;98.20
45237;DHT22;30973;51.442;3.580;2022-09-29T17:23:50;14.80;98.20
45237;DHT22;30973;51.442;3.580;2022-09-29T17:26:23;14.80;98.30
45237;DHT22;30973;51.442;3.580;2022-09-29T17:29:11;14.70;98.30
45237;DHT22;30973;51.442;3.580;2022-09-29T17:31:37;14.70;98.30
45237;DHT22;30973;51.442;3.580;2022-09-29T17:34:04;14.70;98.40
45237;DHT22;30973;51.442;3.580;2022-09-29T17:36:34;14.60;98.50
45237;DHT22;30973;51.442;3.580;2022-09-29T17:39:01;14.60;98.50
45237;DHT22;30973;51.442;3.580;2022-09-29T17:41:28;14.50;98.50
45237;DHT22;30973;51.442;3.580;2022-09-29T17:43:55;14.50;98.60
45237;DHT22;30973;51.442;3.580;2022-09-29T17:46:22;14.50;98.60
45237;DHT22;30973;51.442;3.580;2022-09-29T17:48:49;14.50;98.60
45237;DHT22;30973;51.442;3.580;2022-09-29T17:51:16;14.40;98.60
45237;DHT22;30973;51.442;3.580;2022-09-29T17:53:46;14.40;98.70
45237;DHT22;30973;51.442;3.580;2022-09-29T17:58:50;14.30;98.80
45237;DHT22;30973;51.442;3.580;2022-09-29T18:01:20;14.30;98.80
45237;DHT22;30973;51.442;3.580;2022-09-29T18:03:47;14.20;98.80
45237;DHT22;30973;51.442;3.580;2022-09-29T18:06:20;14.20;98.90
45237;DHT22;30973;51.442;3.580;2022-09-29T18:08:48;14.20;99.00
45237;DHT22;30973;51.442;3.580;2022-09-29T18:11:22;14.10;99.00
45237;DHT22;30973;51.442;3.580;2022-09-29T18:13:49;14.00;99.00
45237;DHT22;30973;51.442;3.580;2022-09-29T18:16:19;14.00;99.10
45237;DHT22;30973;51.442;3.580;2022-09-29T18:18:47;14.00;99.10
45237;DHT22;30973;51.442;3.580;2022-09-29T18:21:14;14.00;99.10
45237;DHT22;30973;51.442;3.580;2022-09-29T18:23:44;13.90;99.20
45237;DHT22;30973;51.442;3.580;2022-09-29T18:26:12;13.90;99.20
45237;DHT22;30973;51.442;3.580;2022-09-29T18:28:41;13.80;99.20
45237;DHT22;30973;51.442;3.580;2022-09-29T18:31:24;13.80;99.30
45237;DHT22;30973;51.442;3.580;2022-09-29T18:33:53;13.80;99.30
45237;DHT22;30973;51.442;3.580;2022-09-29T18:36:20;13.70;99.40
45237;DHT22;30973;51.442;3.580;2022-09-29T18:38:47;13.70;99.40
45237;DHT22;30973;51.442;3.580;2022-09-29T18:41:17;13.60;99.40
45237;DHT22;30973;51.442;3.580;2022-09-29T18:43:46;13.60;99.40
45237;DHT22;30973;51.442;3.580;2022-09-29T18:46:14;13.50;99.50
45237;DHT22;30973;51.442;3.580;2022-09-29T18:48:42;13.50;99.50
45237;DHT22;30973;51.442;3.580;2022-09-29T18:51:09;13.50;99.60
45237;DHT22;30973;51.442;3.580;2022-09-29T18:53:39;13.50;99.60
45237;DHT22;30973;51.442;3.580;2022-09-29T18:56:14;13.40;99.90
45237;DHT22;30973;51.442;3.580;2022-09-29T18:58:42;13.40;99.60
45237;DHT22;30973;51.442;3.580;2022-09-29T19:01:13;13.30;99.70
45237;DHT22;30973;51.442;3.580;2022-09-29T19:03:41;13.30;99.70
45237;DHT22;30973;51.442;3.580;2022-09-29T19:06:13;13.30;99.80
45237;DHT22;30973;51.442;3.580;2022-09-29T19:08:41;13.20;99.80
45237;DHT22;30973;51.442;3.580;2022-09-29T19:11:19;13.20;99.90
45237;DHT22;30973;51.442;3.580;2022-09-29T19:13:47;13.10;99.90
45237;DHT22;30973;51.442;3.580;2022-09-29T19:16:17;13.10;99.90
45237;DHT22;30973;51.442;3.580;2022-09-29T19:18:44;13.10;99.90
45237;DHT22;30973;51.442;3.580;2022-09-29T19:21:13;13.10;99.90
45237;DHT22;30973;51.442;3.580;2022-09-29T19:23:41;13.00;99.90
45237;DHT22;30973;51.442;3.580;2022-09-29T19:26:14;13.00;99.90
45237;DHT22;30973;51.442;3.580;2022-09-29T19:28:41;13.00;99.90
45237;DHT22;30973;51.442;3.580;2022-09-29T19:31:13;13.00;99.90
45237;DHT22;30973;51.442;3.580;2022-09-29T19:33:41;12.90;99.90
45237;DHT22;30973;51.442;3.580;2022-09-29T19:36:12;12.90;99.90
45237;DHT22;30973;51.442;3.580;2022-09-29T19:38:40;12.90;99.90
45237;DHT22;30973;51.442;3.580;2022-09-29T19:41:17;12.80;99.90
45237;DHT22;30973;51.442;3.580;2022-09-29T19:43:45;12.80;99.90
45237;DHT22;30973;51.442;3.580;2022-09-29T19:46:14;12.80;99.90
45237;DHT22;30973;51.442;3.580;2022-09-29T19:48:41;12.80;99.90
45237;DHT22;30973;51.442;3.580;2022-09-29T19:51:13;12.70;99.90
45237;DHT22;30973;51.442;3.580;2022-09-29T19:54:01;12.70;99.90
45237;DHT22;30973;51.442;3.580;2022-09-29T19:56:39;12.70;99.90
45237;DHT22;30973;51.442;3.580;2022-09-29T19:59:09;12.60;99.90
